sensor_id;sensor_type;location;lat;lon;timestamp;temperature;humidity
43227;DHT22;28839;52.404;9.808;2024-01-10T00:02:30;-7.40;99.90
43227;DHT22;28839;52.404;9.808;2024-01-10T00:09:23;-7.50;99.90
43227;DHT22;28839;52.404;9.808;2024-01-10T00:16:17;-7.50;99.90
43227;DHT22;28839;52.404;9.808;2024-01-10T00:23:12;-7.50;99.90
43227;DHT22;28839;52.404;9.808;2024-01-10T00:30:08;-7.70;99.90
43227;DHT22;28839;52.404;9.808;2024-01-10T00:37:02;-7.60;99.90
43227;DHT22;28839;52.404;9.808;2024-01-10T00:43:57;-7.50;99.90
43227;DHT22;28839;52.404;9.808;2024-01-10T00:50:51;-7.30;99.90
43227;DHT22;28839;52.404;9.808;2024-01-10T00:57:45;-7.30;99.40
43227;DHT22;28839;52.404;9.808;2024-01-10T01:04:40;-7.70;99.90
43227;DHT22;28839;52.404;9.808;2024-01-10T01:11:34;-7.60;99.90
43227;DHT22;28839;52.404;9.808;2024-01-10T01:18:27;-7.60;99.90
43227;DHT22;28839;52.404;9.808;2024-01-10T01:25:23;-7.40;99.90
43227;DHT22;28839;52.404;9.808;2024-01-10T01:32:16;-7.60;99.90
43227;DHT22;28839;52.404;9.808;2024-01-10T01:39:10;-7.40;99.90
43227;DHT22;28839;52.404;9.808;2024-01-10T01:46:08;-7.50;99.90
43227;DHT22;28839;52.404;9.808;2024-01-10T01:53:03;-7.50;99.90
43227;DHT22;28839;52.404;9.808;2024-01-10T01:59:57;-7.60;99.90
43227;DHT22;28839;52.404;9.808;2024-01-10T02:06:52;-7.50;99.90
43227;DHT22;28839;52.404;9.808;2024-01-10T02:13:46;-7.70;99.90
43227;DHT22;28839;52.404;9.808;2024-01-10T02:20:43;-7.60;99.90
43227;DHT22;28839;52.404;9.808;2024-01-10T02:27:38;-7.70;99.90
43227;DHT22;28839;52.404;9.808;2024-01-10T02:34:32;-7.70;99.90
43227;DHT22;28839;52.404;9.808;2024-01-10T02:41:26;-8.00;99.90
43227;DHT22;28839;52.404;9.808;2024-01-10T02:48:21;-8.10;99.90
43227;DHT22;28839;52.404;9.808;2024-01-10T02:55:15;-8.00;99.90
43227;DHT22;28839;52.404;9.808;2024-01-10T03:02:09;-8.00;99.90
43227;DHT22;28839;52.404;9.808;2024-01-10T03:09:04;-8.10;99.90
43227;DHT22;28839;52.404;9.808;2024-01-10T03:15:59;-8.10;99.90
43227;DHT22;28839;52.404;9.808;2024-01-10T03:22:52;-8.20;99.90
43227;DHT22;28839;52.404;9.808;2024-01-10T03:29:47;-8.20;99.90
43227;DHT22;28839;52.404;9.808;2024-01-10T03:36:42;-8.10;99.90
43227;DHT22;28839;52.404;9.808;2024-01-10T03:43:36;-8.20;99.90
43227;DHT22;28839;52.404;9.808;2024-01-10T03:50:31;-8.20;99.90
43227;DHT22;28839;52.404;9.808;2024-01-10T03:57:24;-8.10;99.90
43227;DHT22;28839;52.404;9.808;2024-01-10T04:04:18;-7.90;99.90
43227;DHT22;28839;52.404;9.808;2024-01-10T04:11:13;-7.80;99.90
43227;DHT22;28839;52.404;9.808;2024-01-10T04:18:07;-7.80;99.90
43227;DHT22;28839;52.404;9.808;2024-01-10T04:25:03;-7.80;99.90
43227;DHT22;28839;52.404;9.808;2024-01-10T04:31:58;-7.80;99.90
43227;DHT22;28839;52.404;9.808;2024-01-10T04:38:52;-7.90;99.90
43227;DHT22;28839;52.404;9.808;2024-01-10T04:45:46;-8.00;99.90
43227;DHT22;28839;52.404;9.808;2024-01-10T04:52:41;-7.90;99.90
43227;DHT22;28839;52.404;9.808;2024-01-10T04:59:35;-8.00;99.90
43227;DHT22;28839;52.404;9.808;2024-01-10T05:06:29;-7.80;99.90
43227;DHT22;28839;52.404;9.808;2024-01-10T05:13:24;-8.00;99.90
43227;DHT22;28839;52.404;9.808;2024-01-10T05:20:18;-8.00;99.90
43227;DHT22;28839;52.404;9.808;2024-01-10T05:27:11;-8.10;99.90
43227;DHT22;28839;52.404;9.808;2024-01-10T05:34:07;-8.20;99.90
43227;DHT22;28839;52.404;9.808;2024-01-10T05:41:00;-8.30;99.90
43227;DHT22;28839;52.404;9.808;2024-01-10T05:47:55;-8.20;99.90
43227;DHT22;28839;52.404;9.808;2024-01-10T05:54:50;-8.30;99.90
43227;DHT22;28839;52.404;9.808;2024-01-10T06:01:45;-8.30;99.90
43227;DHT22;28839;52.404;9.808;2024-01-10T06:08:39;-8.40;99.90
43227;DHT22;28839;52.404;9.808;2024-01-10T06:15:34;-8.50;99.90
43227;DHT22;28839;52.404;9.808;2024-01-10T06:22:28;-8.50;99.90
43227;DHT22;28839;52.404;9.808;2024-01-10T06:29:22;-8.40;99.90
43227;DHT22;28839;52.404;9.808;2024-01-10T06:36:17;-8.50;99.90
43227;DHT22;28839;52.404;9.808;2024-01-10T06:43:11;-8.60;99.90
43227;DHT22;28839;52.404;9.808;2024-01-10T06:50:06;-8.70;99.90
43227;DHT22;28839;52.404;9.808;2024-01-10T06:57:03;-8.60;99.90
43227;DHT22;28839;52.404;9.808;2024-01-10T07:03:57;-8.50;99.90
43227;DHT22;28839;52.404;9.808;2024-01-10T07:10:50;-8.50;99.90
43227;DHT22;28839;52.404;9.808;2024-01-10T07:17:46;-8.60;99.90
43227;DHT22;28839;52.404;9.808;2024-01-10T07:24:39;-8.50;99.90
43227;DHT22;28839;52.404;9.808;2024-01-10T07:31:33;-8.60;99.90
43227;DHT22;28839;52.404;9.808;2024-01-10T07:38:28;-8.60;99.90
43227;DHT22;28839;52.404;9.808;2024-01-10T07:45:22;-8.60;99.90
43227;DHT22;28839;52.404;9.808;2024-01-10T07:52:16;-8.50;99.90
43227;DHT22;28839;52.404;9.808;2024-01-10T07:59:11;-8.50;99.90
43227;DHT22;28839;52.404;9.808;2024-01-10T08:06:08;-8.40;99.90
43227;DHT22;28839;52.404;9.808;2024-01-10T08:13:03;-8.30;99.90
43227;DHT22;28839;52.404;9.808;2024-01-10T08:19:58;-8.20;99.90
43227;DHT22;28839;52.404;9.808;2024-01-10T08:26:52;-8.20;99.90
43227;DHT22;28839;52.404;9.808;2024-01-10T08:33:46;-8.20;99.90
43227;DHT22;28839;52.404;9.808;2024-01-10T08:40:41;-8.00;99.90
43227;DHT22;28839;52.404;9.808;2024-01-10T08:47:35;-8.10;99.90
43227;DHT22;28839;52.404;9.808;2024-01-10T08:54:29;-8.00;99.90
43227;DHT22;28839;52.404;9.808;2024-01-10T09:01:24;-7.60;99.90
43227;DHT22;28839;52.404;9.808;2024-01-10T09:08:18;-7.00;99.90
43227;DHT22;28839;52.404;9.808;2024-01-10T09:15:12;-6.00;87.70
43227;DHT22;28839;52.404;9.808;2024-01-10T09:22:08;-5.00;69.50
43227;DHT22;28839;52.404;9.808;2024-01-10T09:29:02;-4.60;56.60
43227;DHT22;28839;52.404;9.808;2024-01-10T09:35:56;-4.20;51.60
43227;DHT22;28839;52.404;9.808;2024-01-10T09:42:51;-3.00;99.90
43227;DHT22;28839;52.404;9.808;2024-01-10T09:49:45;-2.80;99.90
43227;DHT22;28839;52.404;9.808;2024-01-10T09:56:39;-1.70;99.90
43227;DHT22;28839;52.404;9.808;2024-01-10T10:03:37;-2.10;99.90
43227;DHT22;28839;52.404;9.808;2024-01-10T10:10:34;-4.20;99.90
43227;DHT22;28839;52.404;9.808;2024-01-10T10:17:28;-5.00;99.90
43227;DHT22;28839;52.404;9.808;2024-01-10T10:24:23;-5.20;35.90
43227;DHT22;28839;52.404;9.808;2024-01-10T10:31:18;-5.30;42.30
43227;DHT22;28839;52.404;9.808;2024-01-10T10:38:12;-5.10;44.80
43227;DHT22;28839;52.404;9.808;2024-01-10T10:45:09;-4.70;44.20
43227;DHT22;28839;52.404;9.808;2024-01-10T10:52:06;-4.50;42.50
43227;DHT22;28839;52.404;9.808;2024-01-10T10:59:01;-4.10;49.50
43227;DHT22;28839;52.404;9.808;2024-01-10T11:05:58;-3.80;56.90
43227;DHT22;28839;52.404;9.808;2024-01-10T11:13:03;-4.10;99.90
43227;DHT22;28839;52.404;9.808;2024-01-10T11:20:20;-3.70;99.90
43227;DHT22;28839;52.404;9.808;2024-01-10T11:27:18;-3.70;99.90
43227;DHT22;28839;52.404;9.808;2024-01-10T11:34:13;-3.50;99.90
43227;DHT22;28839;52.404;9.808;2024-01-10T11:41:06;-3.60;99.90
43227;DHT22;28839;52.404;9.808;2024-01-10T11:48:03;-3.30;99.90
43227;DHT22;28839;52.404;9.808;2024-01-10T11:54:56;-3.30;99.90
43227;DHT22;28839;52.404;9.808;2024-01-10T12:01:50;-3.30;99.90
43227;DHT22;28839;52.404;9.808;2024-01-10T12:08:46;-3.40;99.90
43227;DHT22;28839;52.404;9.808;2024-01-10T12:15:39;-3.30;99.90
43227;DHT22;28839;52.404;9.808;2024-01-10T12:22:33;-3.20;99.90
43227;DHT22;28839;52.404;9.808;2024-01-10T12:29:29;-3.30;99.90
43227;DHT22;28839;52.404;9.808;2024-01-10T12:36:23;-3.00;99.90
43227;DHT22;28839;52.404;9.808;2024-01-10T12:43:19;-2.70;99.90
43227;DHT22;28839;52.404;9.808;2024-01-10T12:50:15;-2.70;99.90
43227;DHT22;28839;52.404;9.808;2024-01-10T12:57:09;-2.70;99.90
43227;DHT22;28839;52.404;9.808;2024-01-10T13:04:03;-2.80;99.90
43227;DHT22;28839;52.404;9.808;2024-01-10T13:10:58;-2.70;99.90
43227;DHT22;28839;52.404;9.808;2024-01-10T13:17:53;-2.60;99.90
43227;DHT22;28839;52.404;9.808;2024-01-10T13:24:47;-2.60;99.90
43227;DHT22;28839;52.404;9.808;2024-01-10T13:31:42;-2.70;99.90
43227;DHT22;28839;52.404;9.808;2024-01-10T13:38:36;-2.70;99.90
43227;DHT22;28839;52.404;9.808;2024-01-10T13:45:30;-2.80;99.90
43227;DHT22;28839;52.404;9.808;2024-01-10T13:52:25;-2.80;99.90
43227;DHT22;28839;52.404;9.808;2024-01-10T13:59:19;-2.40;99.90
43227;DHT22;28839;52.404;9.808;2024-01-10T14:06:13;-2.70;99.90
43227;DHT22;28839;52.404;9.808;2024-01-10T14:13:08;-2.80;99.90
43227;DHT22;28839;52.404;9.808;2024-01-10T14:20:02;-2.90;99.90
43227;DHT22;28839;52.404;9.808;2024-01-10T14:26:56;-2.90;99.90
43227;DHT22;28839;52.404;9.808;2024-01-10T14:33:52;-3.00;99.90
43227;DHT22;28839;52.404;9.808;2024-01-10T14:40:47;-2.90;99.90
43227;DHT22;28839;52.404;9.808;2024-01-10T14:47:40;-2.90;99.90
43227;DHT22;28839;52.404;9.808;2024-01-10T14:54:35;-3.10;99.90
43227;DHT22;28839;52.404;9.808;2024-01-10T15:01:29;-2.80;99.90
43227;DHT22;28839;52.404;9.808;2024-01-10T15:08:23;-3.20;99.90
43227;DHT22;28839;52.404;9.808;2024-01-10T15:15:18;-3.10;99.90
43227;DHT22;28839;52.404;9.808;2024-01-10T15:22:13;-3.00;99.90
43227;DHT22;28839;52.404;9.808;2024-01-10T15:29:07;-2.80;99.90
43227;DHT22;28839;52.404;9.808;2024-01-10T15:36:02;-2.90;99.90
43227;DHT22;28839;52.404;9.808;2024-01-10T15:42:56;-3.20;99.90
43227;DHT22;28839;52.404;9.808;2024-01-10T15:49:50;-3.10;99.90
43227;DHT22;28839;52.404;9.808;2024-01-10T15:56:45;-3.50;99.90
43227;DHT22;28839;52.404;9.808;2024-01-10T16:03:39;-3.80;99.90
43227;DHT22;28839;52.404;9.808;2024-01-10T16:10:33;-3.90;99.90
43227;DHT22;28839;52.404;9.808;2024-01-10T16:17:28;-4.00;99.90
43227;DHT22;28839;52.404;9.808;2024-01-10T16:24:22;-4.10;99.90
43227;DHT22;28839;52.404;9.808;2024-01-10T16:31:16;-4.00;99.90
43227;DHT22;28839;52.404;9.808;2024-01-10T16:38:12;-4.30;46.10
43227;DHT22;28839;52.404;9.808;2024-01-10T16:45:07;-4.30;52.10
43227;DHT22;28839;52.404;9.808;2024-01-10T16:52:01;-4.50;51.00
43227;DHT22;28839;52.404;9.808;2024-01-10T16:58:56;-4.50;53.70
43227;DHT22;28839;52.404;9.808;2024-01-10T17:05:50;-4.70;55.30
43227;DHT22;28839;52.404;9.808;2024-01-10T17:12:44;-4.70;62.00
43227;DHT22;28839;52.404;9.808;2024-01-10T17:19:39;-4.80;60.20
43227;DHT22;28839;52.404;9.808;2024-01-10T17:26:35;-4.90;64.50
43227;DHT22;28839;52.404;9.808;2024-01-10T17:33:29;-4.80;75.80
43227;DHT22;28839;52.404;9.808;2024-01-10T17:40:26;-4.90;77.80
43227;DHT22;28839;52.404;9.808;2024-01-10T17:47:20;-4.90;83.20
43227;DHT22;28839;52.404;9.808;2024-01-10T17:54:15;-4.90;83.80
43227;DHT22;28839;52.404;9.808;2024-01-10T18:01:10;-4.90;83.40
43227;DHT22;28839;52.404;9.808;2024-01-10T18:08:04;-5.10;89.70
43227;DHT22;28839;52.404;9.808;2024-01-10T18:14:58;-5.20;93.00
43227;DHT22;28839;52.404;9.808;2024-01-10T18:21:53;-5.30;95.80
43227;DHT22;28839;52.404;9.808;2024-01-10T18:28:47;-5.30;93.60
43227;DHT22;28839;52.404;9.808;2024-01-10T18:35:41;-5.30;95.60
43227;DHT22;28839;52.404;9.808;2024-01-10T18:42:36;-5.50;96.70
43227;DHT22;28839;52.404;9.808;2024-01-10T18:49:30;-5.10;94.20
43227;DHT22;28839;52.404;9.808;2024-01-10T18:56:23;-5.10;96.10
43227;DHT22;28839;52.404;9.808;2024-01-10T19:03:19;-5.40;95.00
43227;DHT22;28839;52.404;9.808;2024-01-10T19:10:12;-5.70;97.40
43227;DHT22;28839;52.404;9.808;2024-01-10T19:17:06;-5.70;99.90
43227;DHT22;28839;52.404;9.808;2024-01-10T19:24:01;-5.90;99.90
43227;DHT22;28839;52.404;9.808;2024-01-10T19:30:57;-6.00;99.90
43227;DHT22;28839;52.404;9.808;2024-01-10T19:37:51;-5.90;99.90
43227;DHT22;28839;52.404;9.808;2024-01-10T19:44:46;-5.90;99.90
43227;DHT22;28839;52.404;9.808;2024-01-10T19:51:40;-6.10;99.90
43227;DHT22;28839;52.404;9.808;2024-01-10T19:58:33;-6.20;99.90
43227;DHT22;28839;52.404;9.808;2024-01-10T20:05:29;-6.40;99.90
43227;DHT22;28839;52.404;9.808;2024-01-10T20:12:22;-6.50;99.90
43227;DHT22;28839;52.404;9.808;2024-01-10T20:19:18;-6.50;99.90
43227;DHT22;28839;52.404;9.808;2024-01-10T20:26:14;-6.50;99.90
43227;DHT22;28839;52.404;9.808;2024-01-10T20:33:08;-6.50;99.90
43227;DHT22;28839;52.404;9.808;2024-01-10T20:40:01;-6.70;99.90
43227;DHT22;28839;52.404;9.808;2024-01-10T20:46:58;-6.70;99.90
43227;DHT22;28839;52.404;9.808;2024-01-10T20:53:51;-6.80;99.90
43227;DHT22;28839;52.404;9.808;2024-01-10T21:00:45;-7.00;99.90
43227;DHT22;28839;52.404;9.808;2024-01-10T21:07:43;-6.80;99.90
43227;DHT22;28839;52.404;9.808;2024-01-10T21:14:37;-7.00;99.90
43227;DHT22;28839;52.404;9.808;2024-01-10T21:21:32;-7.10;99.90
43227;DHT22;28839;52.404;9.808;2024-01-10T21:28:28;-7.20;99.90
43227;DHT22;28839;52.404;9.808;2024-01-10T21:35:21;-7.40;99.90
43227;DHT22;28839;52.404;9.808;2024-01-10T21:42:15;-7.60;99.90
43227;DHT22;28839;52.404;9.808;2024-01-10T21:49:10;-7.40;99.90
43227;DHT22;28839;52.404;9.808;2024-01-10T21:56:05;-7.10;99.90
43227;DHT22;28839;52.404;9.808;2024-01-10T22:02:59;-7.30;99.90
43227;DHT22;28839;52.404;9.808;2024-01-10T22:09:54;-7.30;99.90
43227;DHT22;28839;52.404;9.808;2024-01-10T22:16:48;-7.40;99.90
43227;DHT22;28839;52.404;9.808;2024-01-10T22:23:41;-7.30;99.90
43227;DHT22;28839;52.404;9.808;2024-01-10T22:30:37;-7.40;99.90
43227;DHT22;28839;52.404;9.808;2024-01-10T22:37:30;-7.30;99.90
43227;DHT22;28839;52.404;9.808;2024-01-10T22:44:24;-7.50;99.90
43227;DHT22;28839;52.404;9.808;2024-01-10T22:51:19;-7.50;99.90
43227;DHT22;28839;52.404;9.808;2024-01-10T22:58:13;-7.70;99.90
43227;DHT22;28839;52.404;9.808;2024-01-10T23:05:08;-7.60;99.90
43227;DHT22;28839;52.404;9.808;2024-01-10T23:12:03;-7.80;99.90
43227;DHT22;28839;52.404;9.808;2024-01-10T23:18:57;-7.90;99.90
43227;DHT22;28839;52.404;9.808;2024-01-10T23:25:51;-8.10;99.90
43227;DHT22;28839;52.404;9.808;2024-01-10T23:32:47;-8.00;99.90
43227;DHT22;28839;52.404;9.808;2024-01-10T23:39:40;-8.00;99.90
43227;DHT22;28839;52.404;9.808;2024-01-10T23:46:34;-8.30;99.90
43227;DHT22;28839;52.404;9.808;2024-01-10T23:53:29;-8.30;99.90
